sensor_id;sensor_type;location;lat;lon;timestamp;temperature;humidity
814;DHT22;389;48.710;9.392;2024-01-06T00:01:29;7.40;99.90
814;DHT22;389;48.710;9.392;2024-01-06T00:03:55;7.40;99.90
814;DHT22;389;48.710;9.392;2024-01-06T00:06:20;7.40;99.90
814;DHT22;389;48.710;9.392;2024-01-06T00:08:47;7.40;99.90
814;DHT22;389;48.710;9.392;2024-01-06T00:11:22;7.40;99.90
814;DHT22;389;48.710;9.392;2024-01-06T00:13:47;7.50;99.90
814;DHT22;389;48.710;9.392;2024-01-06T00:16:13;7.50;99.90
814;DHT22;389;48.710;9.392;2024-01-06T00:18:41;7.50;99.90
814;DHT22;389;48.710;9.392;2024-01-06T00:21:08;7.60;99.90
814;DHT22;389;48.710;9.392;2024-01-06T00:23:33;7.60;99.90
814;DHT22;389;48.710;9.392;2024-01-06T00:25:59;7.70;99.90
814;DHT22;389;48.710;9.392;2024-01-06T00:28:24;7.60;99.90
814;DHT22;389;48.710;9.392;2024-01-06T00:30:50;7.60;99.90
814;DHT22;389;48.710;9.392;2024-01-06T00:33:15;7.60;99.90
814;DHT22;389;48.710;9.392;2024-01-06T00:35:41;7.60;99.90
814;DHT22;389;48.710;9.392;2024-01-06T00:38:06;7.60;99.90
814;DHT22;389;48.710;9.392;2024-01-06T00:40:32;7.60;99.90
814;DHT22;389;48.710;9.392;2024-01-06T00:42:58;7.60;99.90
814;DHT22;389;48.710;9.392;2024-01-06T00:45:24;7.60;99.90
814;DHT22;389;48.710;9.392;2024-01-06T00:47:49;7.60;99.90
814;DHT22;389;48.710;9.392;2024-01-06T00:50:15;7.60;99.90
814;DHT22;389;48.710;9.392;2024-01-06T00:52:42;7.60;99.90
814;DHT22;389;48.710;9.392;2024-01-06T00:55:08;7.60;99.90
814;DHT22;389;48.710;9.392;2024-01-06T00:57:33;7.50;99.90
814;DHT22;389;48.710;9.392;2024-01-06T00:59:59;7.50;99.90
814;DHT22;389;48.710;9.392;2024-01-06T01:02:25;7.50;99.90
814;DHT22;389;48.710;9.392;2024-01-06T01:04:50;7.50;99.90
814;DHT22;389;48.710;9.392;2024-01-06T01:07:17;7.50;99.90
814;DHT22;389;48.710;9.392;2024-01-06T01:09:43;7.40;99.90
814;DHT22;389;48.710;9.392;2024-01-06T01:12:08;7.40;99.90
814;DHT22;389;48.710;9.392;2024-01-06T01:14:34;7.50;99.90
814;DHT22;389;48.710;9.392;2024-01-06T01:16:59;7.40;99.90
814;DHT22;389;48.710;9.392;2024-01-06T01:19:25;7.40;99.90
814;DHT22;389;48.710;9.392;2024-01-06T01:21:51;7.30;99.90
814;DHT22;389;48.710;9.392;2024-01-06T01:24:21;7.30;99.90
814;DHT22;389;48.710;9.392;2024-01-06T01:26:47;7.30;99.90
814;DHT22;389;48.710;9.392;2024-01-06T01:29:12;7.30;99.90
814;DHT22;389;48.710;9.392;2024-01-06T01:31:38;7.30;99.90
814;DHT22;389;48.710;9.392;2024-01-06T01:34:03;7.30;99.90
814;DHT22;389;48.710;9.392;2024-01-06T01:36:29;7.40;99.90
814;DHT22;389;48.710;9.392;2024-01-06T01:38:54;7.20;99.90
814;DHT22;389;48.710;9.392;2024-01-06T01:41:20;7.30;99.90
814;DHT22;389;48.710;9.392;2024-01-06T01:43:46;7.20;99.90
814;DHT22;389;48.710;9.392;2024-01-06T01:46:12;7.20;99.90
814;DHT22;389;48.710;9.392;2024-01-06T01:48:38;7.20;99.90
814;DHT22;389;48.710;9.392;2024-01-06T01:51:04;7.10;99.90
814;DHT22;389;48.710;9.392;2024-01-06T01:53:30;7.10;99.90
814;DHT22;389;48.710;9.392;2024-01-06T01:55:57;7.10;99.90
814;DHT22;389;48.710;9.392;2024-01-06T01:58:23;7.10;99.90
814;DHT22;389;48.710;9.392;2024-01-06T02:00:49;7.10;99.90
814;DHT22;389;48.710;9.392;2024-01-06T02:03:16;7.10;99.90
814;DHT22;389;48.710;9.392;2024-01-06T02:05:41;7.00;99.90
814;DHT22;389;48.710;9.392;2024-01-06T02:08:07;7.00;99.90
814;DHT22;389;48.710;9.392;2024-01-06T02:10:33;7.10;99.90
814;DHT22;389;48.710;9.392;2024-01-06T02:13:08;6.90;99.90
814;DHT22;389;48.710;9.392;2024-01-06T02:15:34;6.90;99.90
814;DHT22;389;48.710;9.392;2024-01-06T02:18:00;6.90;99.90
814;DHT22;389;48.710;9.392;2024-01-06T02:20:25;6.90;99.90
814;DHT22;389;48.710;9.392;2024-01-06T02:22:51;6.90;99.90
814;DHT22;389;48.710;9.392;2024-01-06T02:25:18;6.90;99.90
814;DHT22;389;48.710;9.392;2024-01-06T02:27:43;6.90;99.90
814;DHT22;389;48.710;9.392;2024-01-06T02:30:09;6.80;99.90
814;DHT22;389;48.710;9.392;2024-01-06T02:32:35;6.90;99.90
814;DHT22;389;48.710;9.392;2024-01-06T02:35:01;6.80;99.90
814;DHT22;389;48.710;9.392;2024-01-06T02:37:26;6.80;99.90
814;DHT22;389;48.710;9.392;2024-01-06T02:39:52;6.80;99.90
814;DHT22;389;48.710;9.392;2024-01-06T02:42:18;6.80;99.90
814;DHT22;389;48.710;9.392;2024-01-06T02:44:44;6.80;99.90
814;DHT22;389;48.710;9.392;2024-01-06T02:47:10;6.70;99.90
814;DHT22;389;48.710;9.392;2024-01-06T02:49:36;6.70;99.90
814;DHT22;389;48.710;9.392;2024-01-06T02:52:01;6.70;99.90
814;DHT22;389;48.710;9.392;2024-01-06T02:54:27;6.70;99.90
814;DHT22;389;48.710;9.392;2024-01-06T02:56:52;6.70;99.90
814;DHT22;389;48.710;9.392;2024-01-06T02:59:18;6.70;99.90
814;DHT22;389;48.710;9.392;2024-01-06T03:01:43;6.70;99.90
814;DHT22;389;48.710;9.392;2024-01-06T03:04:09;6.70;99.90
814;DHT22;389;48.710;9.392;2024-01-06T03:06:34;6.70;99.90
814;DHT22;389;48.710;9.392;2024-01-06T03:09:00;6.70;99.90
814;DHT22;389;48.710;9.392;2024-01-06T03:11:25;6.70;99.90
814;DHT22;389;48.710;9.392;2024-01-06T03:13:51;6.70;99.90
814;DHT22;389;48.710;9.392;2024-01-06T03:16:16;6.70;99.90
814;DHT22;389;48.710;9.392;2024-01-06T03:18:42;6.70;99.90
814;DHT22;389;48.710;9.392;2024-01-06T03:21:20;6.70;99.90
814;DHT22;389;48.710;9.392;2024-01-06T03:23:47;6.70;99.90
814;DHT22;389;48.710;9.392;2024-01-06T03:26:13;6.60;99.90
814;DHT22;389;48.710;9.392;2024-01-06T03:28:38;6.60;99.90
814;DHT22;389;48.710;9.392;2024-01-06T03:31:04;6.60;99.90
814;DHT22;389;48.710;9.392;2024-01-06T03:33:29;6.60;99.90
814;DHT22;389;48.710;9.392;2024-01-06T03:35:55;6.60;99.90
814;DHT22;389;48.710;9.392;2024-01-06T03:38:21;6.60;99.90
814;DHT22;389;48.710;9.392;2024-01-06T03:40:46;6.60;99.90
814;DHT22;389;48.710;9.392;2024-01-06T03:43:12;6.70;99.90
814;DHT22;389;48.710;9.392;2024-01-06T03:45:37;6.60;99.90
814;DHT22;389;48.710;9.392;2024-01-06T03:48:03;6.50;99.90
814;DHT22;389;48.710;9.392;2024-01-06T03:50:29;6.50;99.90
814;DHT22;389;48.710;9.392;2024-01-06T03:52:54;6.50;99.90
814;DHT22;389;48.710;9.392;2024-01-06T03:55:20;6.50;99.90
814;DHT22;389;48.710;9.392;2024-01-06T03:57:45;6.50;99.90
814;DHT22;389;48.710;9.392;2024-01-06T04:00:11;6.40;99.90
814;DHT22;389;48.710;9.392;2024-01-06T04:02:37;6.40;99.90
814;DHT22;389;48.710;9.392;2024-01-06T04:05:03;6.40;99.90
814;DHT22;389;48.710;9.392;2024-01-06T04:07:30;6.40;99.90
814;DHT22;389;48.710;9.392;2024-01-06T04:09:55;6.40;99.90
814;DHT22;389;48.710;9.392;2024-01-06T04:12:21;6.40;99.90
814;DHT22;389;48.710;9.392;2024-01-06T04:14:46;6.40;99.90
814;DHT22;389;48.710;9.392;2024-01-06T04:17:12;6.40;99.90
814;DHT22;389;48.710;9.392;2024-01-06T04:19:38;6.30;99.90
814;DHT22;389;48.710;9.392;2024-01-06T04:22:03;6.30;99.90
814;DHT22;389;48.710;9.392;2024-01-06T04:24:29;6.40;99.90
814;DHT22;389;48.710;9.392;2024-01-06T04:26:54;6.30;99.90
814;DHT22;389;48.710;9.392;2024-01-06T04:29:20;6.30;99.90
814;DHT22;389;48.710;9.392;2024-01-06T04:31:46;6.30;99.90
814;DHT22;389;48.710;9.392;2024-01-06T04:34:11;6.30;99.90
814;DHT22;389;48.710;9.392;2024-01-06T04:36:37;6.30;99.90
814;DHT22;389;48.710;9.392;2024-01-06T04:39:02;6.30;99.90
814;DHT22;389;48.710;9.392;2024-01-06T04:41:28;6.30;99.90
814;DHT22;389;48.710;9.392;2024-01-06T04:43:53;6.20;99.90
814;DHT22;389;48.710;9.392;2024-01-06T04:46:19;6.20;99.90
814;DHT22;389;48.710;9.392;2024-01-06T04:48:44;6.20;99.90
814;DHT22;389;48.710;9.392;2024-01-06T04:51:10;6.20;99.90
814;DHT22;389;48.710;9.392;2024-01-06T04:53:38;6.20;99.90
814;DHT22;389;48.710;9.392;2024-01-06T04:56:04;6.20;99.90
814;DHT22;389;48.710;9.392;2024-01-06T04:58:29;6.20;99.90
814;DHT22;389;48.710;9.392;2024-01-06T05:00:55;6.20;99.90
814;DHT22;389;48.710;9.392;2024-01-06T05:03:20;6.10;99.90
814;DHT22;389;48.710;9.392;2024-01-06T05:05:46;6.10;99.90
814;DHT22;389;48.710;9.392;2024-01-06T05:08:11;6.10;99.90
814;DHT22;389;48.710;9.392;2024-01-06T05:10:37;6.10;99.90
814;DHT22;389;48.710;9.392;2024-01-06T05:13:03;6.10;99.90
814;DHT22;389;48.710;9.392;2024-01-06T05:15:28;6.00;99.90
814;DHT22;389;48.710;9.392;2024-01-06T05:17:54;6.00;99.90
814;DHT22;389;48.710;9.392;2024-01-06T05:20:20;6.00;99.90
814;DHT22;389;48.710;9.392;2024-01-06T05:22:45;6.00;99.90
814;DHT22;389;48.710;9.392;2024-01-06T05:25:11;6.10;99.90
814;DHT22;389;48.710;9.392;2024-01-06T05:27:36;6.00;99.90
814;DHT22;389;48.710;9.392;2024-01-06T05:30:02;6.00;99.90
814;DHT22;389;48.710;9.392;2024-01-06T05:32:28;6.00;99.90
814;DHT22;389;48.710;9.392;2024-01-06T05:34:53;6.00;99.90
814;DHT22;389;48.710;9.392;2024-01-06T05:37:19;6.00;99.90
814;DHT22;389;48.710;9.392;2024-01-06T05:39:44;5.90;99.90
814;DHT22;389;48.710;9.392;2024-01-06T05:42:10;5.90;99.90
814;DHT22;389;48.710;9.392;2024-01-06T05:44:40;5.90;99.90
814;DHT22;389;48.710;9.392;2024-01-06T05:47:06;5.90;99.90
814;DHT22;389;48.710;9.392;2024-01-06T05:49:33;5.90;99.90
814;DHT22;389;48.710;9.392;2024-01-06T05:51:59;5.90;99.90
814;DHT22;389;48.710;9.392;2024-01-06T05:54:24;5.90;99.90
814;DHT22;389;48.710;9.392;2024-01-06T05:56:50;5.90;99.90
814;DHT22;389;48.710;9.392;2024-01-06T05:59:15;5.90;99.90
814;DHT22;389;48.710;9.392;2024-01-06T06:01:41;5.90;99.90
814;DHT22;389;48.710;9.392;2024-01-06T06:04:06;6.00;99.90
814;DHT22;389;48.710;9.392;2024-01-06T06:06:32;6.00;99.90
814;DHT22;389;48.710;9.392;2024-01-06T06:08:58;6.00;99.90
814;DHT22;389;48.710;9.392;2024-01-06T06:11:23;6.10;99.90
814;DHT22;389;48.710;9.392;2024-01-06T06:13:49;6.10;99.90
814;DHT22;389;48.710;9.392;2024-01-06T06:16:14;6.10;99.90
814;DHT22;389;48.710;9.392;2024-01-06T06:18:40;6.10;99.90
814;DHT22;389;48.710;9.392;2024-01-06T06:21:06;6.20;99.90
814;DHT22;389;48.710;9.392;2024-01-06T06:23:33;6.30;99.90
814;DHT22;389;48.710;9.392;2024-01-06T06:25:59;6.20;99.90
814;DHT22;389;48.710;9.392;2024-01-06T06:28:27;6.20;99.90
814;DHT22;389;48.710;9.392;2024-01-06T06:30:52;6.20;99.90
814;DHT22;389;48.710;9.392;2024-01-06T06:33:18;6.20;99.90
814;DHT22;389;48.710;9.392;2024-01-06T06:35:44;6.30;99.90
814;DHT22;389;48.710;9.392;2024-01-06T06:38:09;6.30;99.90
814;DHT22;389;48.710;9.392;2024-01-06T06:40:35;6.30;99.90
814;DHT22;389;48.710;9.392;2024-01-06T06:43:00;6.40;99.90
814;DHT22;389;48.710;9.392;2024-01-06T06:45:26;6.30;99.90
814;DHT22;389;48.710;9.392;2024-01-06T06:47:52;6.40;99.90
814;DHT22;389;48.710;9.392;2024-01-06T06:50:17;6.40;99.90
814;DHT22;389;48.710;9.392;2024-01-06T06:52:44;6.30;99.90
814;DHT22;389;48.710;9.392;2024-01-06T06:55:09;6.50;99.90
814;DHT22;389;48.710;9.392;2024-01-06T06:57:36;6.40;99.90
814;DHT22;389;48.710;9.392;2024-01-06T07:00:02;6.40;99.90
814;DHT22;389;48.710;9.392;2024-01-06T07:02:28;6.40;99.90
814;DHT22;389;48.710;9.392;2024-01-06T07:04:53;6.50;99.90
814;DHT22;389;48.710;9.392;2024-01-06T07:07:19;6.40;99.90
814;DHT22;389;48.710;9.392;2024-01-06T07:09:44;6.40;99.90
814;DHT22;389;48.710;9.392;2024-01-06T07:12:10;6.50;99.90
814;DHT22;389;48.710;9.392;2024-01-06T07:14:36;6.50;99.90
814;DHT22;389;48.710;9.392;2024-01-06T07:17:03;6.50;99.90
814;DHT22;389;48.710;9.392;2024-01-06T07:19:31;6.50;99.90
814;DHT22;389;48.710;9.392;2024-01-06T07:21:57;6.50;99.90
814;DHT22;389;48.710;9.392;2024-01-06T07:24:22;6.50;99.90
814;DHT22;389;48.710;9.392;2024-01-06T07:26:48;6.50;99.90
814;DHT22;389;48.710;9.392;2024-01-06T07:29:13;6.50;99.90
814;DHT22;389;48.710;9.392;2024-01-06T07:31:39;6.60;99.90
814;DHT22;389;48.710;9.392;2024-01-06T07:34:04;6.50;99.90
814;DHT22;389;48.710;9.392;2024-01-06T07:36:31;6.50;99.90
814;DHT22;389;48.710;9.392;2024-01-06T07:38:57;6.50;99.90
814;DHT22;389;48.710;9.392;2024-01-06T07:41:23;6.50;99.90
814;DHT22;389;48.710;9.392;2024-01-06T07:43:48;6.50;99.90
814;DHT22;389;48.710;9.392;2024-01-06T07:46:14;6.60;99.90
814;DHT22;389;48.710;9.392;2024-01-06T07:48:39;6.60;99.90
814;DHT22;389;48.710;9.392;2024-01-06T07:51:05;6.60;99.90
814;DHT22;389;48.710;9.392;2024-01-06T07:53:30;6.60;99.90
814;DHT22;389;48.710;9.392;2024-01-06T07:55:56;6.60;99.90
814;DHT22;389;48.710;9.392;2024-01-06T07:58:22;6.60;99.90
814;DHT22;389;48.710;9.392;2024-01-06T08:00:48;6.60;99.90
814;DHT22;389;48.710;9.392;2024-01-06T08:03:13;6.60;99.90
814;DHT22;389;48.710;9.392;2024-01-06T08:05:39;6.60;99.90
814;DHT22;389;48.710;9.392;2024-01-06T08:08:05;6.60;99.90
814;DHT22;389;48.710;9.392;2024-01-06T08:10:31;6.70;99.90
814;DHT22;389;48.710;9.392;2024-01-06T08:12:56;6.70;99.90
814;DHT22;389;48.710;9.392;2024-01-06T08:15:22;6.80;99.90
814;DHT22;389;48.710;9.392;2024-01-06T08:17:47;6.80;99.90
814;DHT22;389;48.710;9.392;2024-01-06T08:20:13;6.90;99.90
814;DHT22;389;48.710;9.392;2024-01-06T08:22:39;6.90;99.90
814;DHT22;389;48.710;9.392;2024-01-06T08:25:04;7.00;99.90
814;DHT22;389;48.710;9.392;2024-01-06T08:27:34;7.00;99.90
814;DHT22;389;48.710;9.392;2024-01-06T08:30:00;7.10;99.90
814;DHT22;389;48.710;9.392;2024-01-06T08:32:26;7.10;99.90
814;DHT22;389;48.710;9.392;2024-01-06T08:34:51;7.20;99.90
814;DHT22;389;48.710;9.392;2024-01-06T08:37:17;7.20;99.90
814;DHT22;389;48.710;9.392;2024-01-06T08:39:43;7.30;99.90
814;DHT22;389;48.710;9.392;2024-01-06T08:42:08;7.30;99.90
814;DHT22;389;48.710;9.392;2024-01-06T08:44:34;7.40;99.90
814;DHT22;389;48.710;9.392;2024-01-06T08:46:59;7.40;99.90
814;DHT22;389;48.710;9.392;2024-01-06T08:49:25;7.50;99.90
814;DHT22;389;48.710;9.392;2024-01-06T08:51:50;7.50;99.90
814;DHT22;389;48.710;9.392;2024-01-06T08:54:16;7.50;99.90
814;DHT22;389;48.710;9.392;2024-01-06T08:56:41;7.50;99.90
814;DHT22;389;48.710;9.392;2024-01-06T08:59:07;7.60;99.90
814;DHT22;389;48.710;9.392;2024-01-06T09:01:33;7.60;99.90
814;DHT22;389;48.710;9.392;2024-01-06T09:04:01;7.60;99.90
814;DHT22;389;48.710;9.392;2024-01-06T09:06:27;7.70;99.90
814;DHT22;389;48.710;9.392;2024-01-06T09:08:52;7.70;99.90
814;DHT22;389;48.710;9.392;2024-01-06T09:11:18;7.80;99.90
814;DHT22;389;48.710;9.392;2024-01-06T09:13:43;7.80;99.90
814;DHT22;389;48.710;9.392;2024-01-06T09:16:09;7.90;99.80
814;DHT22;389;48.710;9.392;2024-01-06T09:18:36;7.90;99.70
814;DHT22;389;48.710;9.392;2024-01-06T09:21:01;7.90;99.60
814;DHT22;389;48.710;9.392;2024-01-06T09:23:28;7.90;99.20
814;DHT22;389;48.710;9.392;2024-01-06T09:25:54;7.90;98.30
814;DHT22;389;48.710;9.392;2024-01-06T09:28:20;8.00;98.30
814;DHT22;389;48.710;9.392;2024-01-06T09:30:46;8.00;98.30
814;DHT22;389;48.710;9.392;2024-01-06T09:33:12;8.00;98.40
814;DHT22;389;48.710;9.392;2024-01-06T09:35:42;8.00;98.30
814;DHT22;389;48.710;9.392;2024-01-06T09:38:10;8.00;98.20
814;DHT22;389;48.710;9.392;2024-01-06T09:40:38;8.10;98.20
814;DHT22;389;48.710;9.392;2024-01-06T09:43:06;8.10;98.20
814;DHT22;389;48.710;9.392;2024-01-06T09:45:31;8.10;98.10
814;DHT22;389;48.710;9.392;2024-01-06T09:47:58;8.20;98.10
814;DHT22;389;48.710;9.392;2024-01-06T09:50:24;8.20;98.10
814;DHT22;389;48.710;9.392;2024-01-06T09:52:50;8.20;98.20
814;DHT22;389;48.710;9.392;2024-01-06T09:55:26;8.30;98.20
814;DHT22;389;48.710;9.392;2024-01-06T09:57:55;8.30;98.10
814;DHT22;389;48.710;9.392;2024-01-06T10:00:21;8.30;98.10
814;DHT22;389;48.710;9.392;2024-01-06T10:02:50;8.40;98.20
814;DHT22;389;48.710;9.392;2024-01-06T10:05:17;8.40;98.10
814;DHT22;389;48.710;9.392;2024-01-06T10:07:46;8.40;98.10
814;DHT22;389;48.710;9.392;2024-01-06T10:10:13;8.40;98.00
814;DHT22;389;48.710;9.392;2024-01-06T10:12:39;8.50;98.10
814;DHT22;389;48.710;9.392;2024-01-06T10:15:06;8.50;98.10
814;DHT22;389;48.710;9.392;2024-01-06T10:17:33;8.60;98.20
814;DHT22;389;48.710;9.392;2024-01-06T10:19:59;8.70;98.30
814;DHT22;389;48.710;9.392;2024-01-06T10:22:25;8.70;98.20
814;DHT22;389;48.710;9.392;2024-01-06T10:24:51;8.80;98.20
814;DHT22;389;48.710;9.392;2024-01-06T10:27:16;8.90;98.10
814;DHT22;389;48.710;9.392;2024-01-06T10:29:42;9.10;98.00
814;DHT22;389;48.710;9.392;2024-01-06T10:32:08;9.20;97.60
814;DHT22;389;48.710;9.392;2024-01-06T10:34:33;9.30;97.00
814;DHT22;389;48.710;9.392;2024-01-06T10:37:02;9.40;96.90
814;DHT22;389;48.710;9.392;2024-01-06T10:39:28;9.50;96.80
814;DHT22;389;48.710;9.392;2024-01-06T10:41:55;9.60;95.70
814;DHT22;389;48.710;9.392;2024-01-06T10:44:21;9.70;95.10
814;DHT22;389;48.710;9.392;2024-01-06T10:46:48;9.80;94.90
814;DHT22;389;48.710;9.392;2024-01-06T10:49:15;9.80;94.50
814;DHT22;389;48.710;9.392;2024-01-06T10:51:44;9.90;94.40
814;DHT22;389;48.710;9.392;2024-01-06T10:54:12;9.90;93.90
814;DHT22;389;48.710;9.392;2024-01-06T10:56:38;9.90;94.00
814;DHT22;389;48.710;9.392;2024-01-06T10:59:04;9.90;93.80
814;DHT22;389;48.710;9.392;2024-01-06T11:01:30;9.90;93.80
814;DHT22;389;48.710;9.392;2024-01-06T11:03:57;9.80;93.70
814;DHT22;389;48.710;9.392;2024-01-06T11:06:23;9.80;93.90
814;DHT22;389;48.710;9.392;2024-01-06T11:11:39;9.70;93.80
814;DHT22;389;48.710;9.392;2024-01-06T11:14:37;9.70;93.90
814;DHT22;389;48.710;9.392;2024-01-06T11:17:03;9.70;94.10
814;DHT22;389;48.710;9.392;2024-01-06T11:24:50;9.50;93.90
814;DHT22;389;48.710;9.392;2024-01-06T11:27:20;9.30;94.20
814;DHT22;389;48.710;9.392;2024-01-06T11:29:48;9.30;94.50
814;DHT22;389;48.710;9.392;2024-01-06T11:32:18;9.30;94.50
814;DHT22;389;48.710;9.392;2024-01-06T11:34:51;9.20;94.30
814;DHT22;389;48.710;9.392;2024-01-06T11:37:19;9.10;94.20
814;DHT22;389;48.710;9.392;2024-01-06T11:39:45;9.10;94.60
814;DHT22;389;48.710;9.392;2024-01-06T11:42:11;9.00;94.60
814;DHT22;389;48.710;9.392;2024-01-06T11:44:43;9.00;94.40
814;DHT22;389;48.710;9.392;2024-01-06T11:47:11;8.90;94.60
814;DHT22;389;48.710;9.392;2024-01-06T11:49:37;8.90;94.50
814;DHT22;389;48.710;9.392;2024-01-06T11:52:03;8.80;94.50
814;DHT22;389;48.710;9.392;2024-01-06T11:54:29;8.70;94.80
814;DHT22;389;48.710;9.392;2024-01-06T11:56:56;8.60;95.10
814;DHT22;389;48.710;9.392;2024-01-06T11:59:22;8.60;95.40
814;DHT22;389;48.710;9.392;2024-01-06T12:01:48;8.50;95.30
814;DHT22;389;48.710;9.392;2024-01-06T12:04:14;8.50;95.70
814;DHT22;389;48.710;9.392;2024-01-06T12:06:43;8.50;95.80
814;DHT22;389;48.710;9.392;2024-01-06T12:09:11;8.60;96.00
814;DHT22;389;48.710;9.392;2024-01-06T12:11:40;8.60;96.00
814;DHT22;389;48.710;9.392;2024-01-06T12:14:06;8.50;96.00
814;DHT22;389;48.710;9.392;2024-01-06T12:16:32;8.50;96.10
814;DHT22;389;48.710;9.392;2024-01-06T12:18:58;8.60;96.10
814;DHT22;389;48.710;9.392;2024-01-06T12:21:26;8.60;96.00
814;DHT22;389;48.710;9.392;2024-01-06T12:23:52;8.60;96.10
814;DHT22;389;48.710;9.392;2024-01-06T12:26:18;8.60;96.20
814;DHT22;389;48.710;9.392;2024-01-06T12:28:48;8.60;96.20
814;DHT22;389;48.710;9.392;2024-01-06T12:31:14;8.50;96.30
814;DHT22;389;48.710;9.392;2024-01-06T12:33:40;8.50;96.20
814;DHT22;389;48.710;9.392;2024-01-06T12:36:09;8.50;96.30
814;DHT22;389;48.710;9.392;2024-01-06T12:38:36;8.50;96.30
814;DHT22;389;48.710;9.392;2024-01-06T12:41:03;8.50;96.50
814;DHT22;389;48.710;9.392;2024-01-06T12:43:29;8.50;96.50
814;DHT22;389;48.710;9.392;2024-01-06T12:45:55;8.50;96.40
814;DHT22;389;48.710;9.392;2024-01-06T12:48:22;8.50;96.40
814;DHT22;389;48.710;9.392;2024-01-06T12:50:48;8.50;96.40
814;DHT22;389;48.710;9.392;2024-01-06T12:53:13;8.50;96.40
814;DHT22;389;48.710;9.392;2024-01-06T12:55:41;8.40;96.50
814;DHT22;389;48.710;9.392;2024-01-06T12:58:06;8.40;96.30
814;DHT22;389;48.710;9.392;2024-01-06T13:00:33;8.40;96.40
814;DHT22;389;48.710;9.392;2024-01-06T13:02:59;8.40;96.50
814;DHT22;389;48.710;9.392;2024-01-06T13:05:25;8.40;96.70
814;DHT22;389;48.710;9.392;2024-01-06T13:07:50;8.50;96.60
814;DHT22;389;48.710;9.392;2024-01-06T13:10:16;8.50;96.50
814;DHT22;389;48.710;9.392;2024-01-06T13:12:42;8.60;96.30
814;DHT22;389;48.710;9.392;2024-01-06T13:15:08;8.60;96.20
814;DHT22;389;48.710;9.392;2024-01-06T13:17:37;8.60;96.10
814;DHT22;389;48.710;9.392;2024-01-06T13:20:06;8.60;96.30
814;DHT22;389;48.710;9.392;2024-01-06T13:22:33;8.60;96.00
814;DHT22;389;48.710;9.392;2024-01-06T13:24:59;8.60;96.10
814;DHT22;389;48.710;9.392;2024-01-06T13:27:25;8.60;96.20
814;DHT22;389;48.710;9.392;2024-01-06T13:29:52;8.60;96.20
814;DHT22;389;48.710;9.392;2024-01-06T13:32:18;8.60;96.30
814;DHT22;389;48.710;9.392;2024-01-06T13:34:44;8.60;96.30
814;DHT22;389;48.710;9.392;2024-01-06T13:37:10;8.50;96.30
814;DHT22;389;48.710;9.392;2024-01-06T13:39:36;8.50;96.50
814;DHT22;389;48.710;9.392;2024-01-06T13:42:01;8.40;96.50
814;DHT22;389;48.710;9.392;2024-01-06T13:44:29;8.40;96.70
814;DHT22;389;48.710;9.392;2024-01-06T13:46:54;8.40;96.60
814;DHT22;389;48.710;9.392;2024-01-06T13:49:21;8.30;96.60
814;DHT22;389;48.710;9.392;2024-01-06T13:51:46;8.20;96.70
814;DHT22;389;48.710;9.392;2024-01-06T13:54:12;8.30;96.80
814;DHT22;389;48.710;9.392;2024-01-06T13:56:38;8.10;97.00
814;DHT22;389;48.710;9.392;2024-01-06T13:59:03;8.10;97.10
814;DHT22;389;48.710;9.392;2024-01-06T14:01:29;8.00;97.20
814;DHT22;389;48.710;9.392;2024-01-06T14:03:55;8.00;97.30
814;DHT22;389;48.710;9.392;2024-01-06T14:06:26;8.00;97.40
814;DHT22;389;48.710;9.392;2024-01-06T14:08:59;8.00;97.40
814;DHT22;389;48.710;9.392;2024-01-06T14:11:28;8.00;97.40
814;DHT22;389;48.710;9.392;2024-01-06T14:13:57;8.00;97.50
814;DHT22;389;48.710;9.392;2024-01-06T14:16:23;8.00;97.40
814;DHT22;389;48.710;9.392;2024-01-06T14:18:49;7.90;97.50
814;DHT22;389;48.710;9.392;2024-01-06T14:21:14;7.90;97.60
814;DHT22;389;48.710;9.392;2024-01-06T14:23:41;7.90;97.70
814;DHT22;389;48.710;9.392;2024-01-06T14:26:07;7.90;97.90
814;DHT22;389;48.710;9.392;2024-01-06T14:28:32;7.80;98.00
814;DHT22;389;48.710;9.392;2024-01-06T14:30:58;7.80;98.10
814;DHT22;389;48.710;9.392;2024-01-06T14:33:24;7.70;98.20
814;DHT22;389;48.710;9.392;2024-01-06T14:35:52;7.70;98.30
814;DHT22;389;48.710;9.392;2024-01-06T14:38:23;7.80;98.40
814;DHT22;389;48.710;9.392;2024-01-06T14:40:51;7.60;98.40
814;DHT22;389;48.710;9.392;2024-01-06T14:43:20;7.60;98.60
814;DHT22;389;48.710;9.392;2024-01-06T14:45:53;7.60;98.50
814;DHT22;389;48.710;9.392;2024-01-06T14:48:19;7.60;98.60
814;DHT22;389;48.710;9.392;2024-01-06T14:50:48;7.60;98.70
814;DHT22;389;48.710;9.392;2024-01-06T14:53:42;7.60;98.70
814;DHT22;389;48.710;9.392;2024-01-06T14:56:17;7.60;98.80
814;DHT22;389;48.710;9.392;2024-01-06T14:58:45;7.60;98.90
814;DHT22;389;48.710;9.392;2024-01-06T15:01:13;7.60;98.90
814;DHT22;389;48.710;9.392;2024-01-06T15:03:44;7.60;98.80
814;DHT22;389;48.710;9.392;2024-01-06T15:06:16;7.60;98.60
814;DHT22;389;48.710;9.392;2024-01-06T15:08:52;7.70;98.70
814;DHT22;389;48.710;9.392;2024-01-06T15:11:46;7.60;98.60
814;DHT22;389;48.710;9.392;2024-01-06T15:14:12;7.60;98.60
814;DHT22;389;48.710;9.392;2024-01-06T15:16:37;7.50;98.70
814;DHT22;389;48.710;9.392;2024-01-06T15:19:12;7.50;98.80
814;DHT22;389;48.710;9.392;2024-01-06T15:21:40;7.50;98.90
814;DHT22;389;48.710;9.392;2024-01-06T15:24:27;7.40;98.90
814;DHT22;389;48.710;9.392;2024-01-06T15:26:52;7.50;99.00
814;DHT22;389;48.710;9.392;2024-01-06T15:29:18;7.40;99.10
814;DHT22;389;48.710;9.392;2024-01-06T15:31:44;7.50;99.10
814;DHT22;389;48.710;9.392;2024-01-06T15:34:09;7.40;99.10
814;DHT22;389;48.710;9.392;2024-01-06T15:36:35;7.50;99.20
814;DHT22;389;48.710;9.392;2024-01-06T15:39:01;7.50;99.20
814;DHT22;389;48.710;9.392;2024-01-06T16:57:32;7.20;99.90
814;DHT22;389;48.710;9.392;2024-01-06T16:59:58;7.20;99.90
814;DHT22;389;48.710;9.392;2024-01-06T17:02:24;7.30;99.90
814;DHT22;389;48.710;9.392;2024-01-06T17:04:50;7.20;99.90
814;DHT22;389;48.710;9.392;2024-01-06T17:07:16;7.20;99.90
814;DHT22;389;48.710;9.392;2024-01-06T17:09:41;7.20;99.90
814;DHT22;389;48.710;9.392;2024-01-06T17:12:10;7.20;99.90
814;DHT22;389;48.710;9.392;2024-01-06T17:14:35;7.10;99.90
814;DHT22;389;48.710;9.392;2024-01-06T17:17:01;7.20;99.90
814;DHT22;389;48.710;9.392;2024-01-06T17:19:27;7.10;99.90
814;DHT22;389;48.710;9.392;2024-01-06T17:21:53;7.10;99.90
814;DHT22;389;48.710;9.392;2024-01-06T17:24:19;7.10;99.90
814;DHT22;389;48.710;9.392;2024-01-06T17:26:46;7.10;99.90
814;DHT22;389;48.710;9.392;2024-01-06T17:29:12;7.10;99.90
814;DHT22;389;48.710;9.392;2024-01-06T17:31:38;7.10;99.90
814;DHT22;389;48.710;9.392;2024-01-06T17:34:03;7.10;99.90
814;DHT22;389;48.710;9.392;2024-01-06T17:36:29;7.10;99.90
814;DHT22;389;48.710;9.392;2024-01-06T17:38:57;7.10;99.90
814;DHT22;389;48.710;9.392;2024-01-06T17:41:22;7.10;99.90
814;DHT22;389;48.710;9.392;2024-01-06T17:43:48;7.10;99.90
814;DHT22;389;48.710;9.392;2024-01-06T17:46:23;7.00;99.90
814;DHT22;389;48.710;9.392;2024-01-06T17:48:51;7.00;99.90
814;DHT22;389;48.710;9.392;2024-01-06T17:51:20;7.10;99.90
814;DHT22;389;48.710;9.392;2024-01-06T17:53:48;7.00;99.90
814;DHT22;389;48.710;9.392;2024-01-06T17:56:13;7.00;99.90
814;DHT22;389;48.710;9.392;2024-01-06T17:58:39;7.00;99.90
814;DHT22;389;48.710;9.392;2024-01-06T18:01:04;7.00;99.90
814;DHT22;389;48.710;9.392;2024-01-06T18:03:30;7.00;99.90
814;DHT22;389;48.710;9.392;2024-01-06T18:05:56;6.90;99.90
814;DHT22;389;48.710;9.392;2024-01-06T18:08:21;7.10;99.90
814;DHT22;389;48.710;9.392;2024-01-06T18:10:47;7.00;99.90